sensor_id;sensor_type;location;lat;lon;timestamp;P1;durP1;ratioP1;P2;durP2;ratioP2
813;SDS011;389;48.710;9.392;2023-03-15T00:02:01;2.90;;;1.83;;
813;SDS011;389;48.710;9.392;2023-03-15T00:04:27;3.33;;;2.53;;
813;SDS011;389;48.710;9.392;2023-03-15T00:06:53;1.70;;;1.60;;
813;SDS011;389;48.710;9.392;2023-03-15T00:09:19;3.10;;;1.63;;
813;SDS011;389;48.710;9.392;2023-03-15T00:11:46;2.30;;;1.57;;
813;SDS011;389;48.710;9.392;2023-03-15T00:14:13;4.10;;;1.73;;
813;SDS011;389;48.710;9.392;2023-03-15T00:16:39;3.97;;;2.13;;
813;SDS011;389;48.710;9.392;2023-03-15T00:19:07;4.40;;;2.20;;
813;SDS011;389;48.710;9.392;2023-03-15T00:21:33;4.27;;;2.70;;
813;SDS011;389;48.710;9.392;2023-03-15T00:23:59;3.40;;;1.97;;
813;SDS011;389;48.710;9.392;2023-03-15T00:26:25;5.57;;;1.97;;
813;SDS011;389;48.710;9.392;2023-03-15T00:28:51;4.30;;;2.23;;
813;SDS011;389;48.710;9.392;2023-03-15T00:31:18;3.43;;;2.40;;
813;SDS011;389;48.710;9.392;2023-03-15T00:33:45;5.67;;;3.00;;
813;SDS011;389;48.710;9.392;2023-03-15T00:36:13;4.37;;;2.00;;
813;SDS011;389;48.710;9.392;2023-03-15T00:38:39;5.60;;;2.77;;
813;SDS011;389;48.710;9.392;2023-03-15T00:41:15;3.63;;;2.27;;
813;SDS011;389;48.710;9.392;2023-03-15T00:43:43;3.30;;;2.50;;
813;SDS011;389;48.710;9.392;2023-03-15T00:46:09;6.27;;;2.17;;
813;SDS011;389;48.710;9.392;2023-03-15T00:48:35;4.93;;;2.60;;
813;SDS011;389;48.710;9.392;2023-03-15T00:51:05;4.03;;;3.27;;
813;SDS011;389;48.710;9.392;2023-03-15T00:53:35;6.50;;;4.00;;
813;SDS011;389;48.710;9.392;2023-03-15T00:56:12;6.70;;;3.70;;
813;SDS011;389;48.710;9.392;2023-03-15T00:58:43;7.80;;;3.60;;
813;SDS011;389;48.710;9.392;2023-03-15T01:01:16;7.10;;;3.40;;
813;SDS011;389;48.710;9.392;2023-03-15T01:03:45;5.53;;;3.70;;
813;SDS011;389;48.710;9.392;2023-03-15T01:06:14;6.90;;;3.17;;
813;SDS011;389;48.710;9.392;2023-03-15T01:08:42;6.70;;;3.77;;
813;SDS011;389;48.710;9.392;2023-03-15T01:11:10;6.40;;;3.87;;
813;SDS011;389;48.710;9.392;2023-03-15T01:13:38;7.60;;;3.90;;
813;SDS011;389;48.710;9.392;2023-03-15T01:16:04;6.93;;;3.93;;
813;SDS011;389;48.710;9.392;2023-03-15T01:18:31;6.60;;;3.87;;
813;SDS011;389;48.710;9.392;2023-03-15T01:20:57;6.63;;;3.63;;
813;SDS011;389;48.710;9.392;2023-03-15T01:23:23;5.97;;;3.37;;
813;SDS011;389;48.710;9.392;2023-03-15T01:25:49;6.20;;;3.47;;
813;SDS011;389;48.710;9.392;2023-03-15T01:28:14;6.90;;;3.20;;
813;SDS011;389;48.710;9.392;2023-03-15T01:30:47;5.50;;;3.00;;
813;SDS011;389;48.710;9.392;2023-03-15T01:33:14;5.83;;;3.60;;
813;SDS011;389;48.710;9.392;2023-03-15T01:35:39;8.87;;;4.10;;
813;SDS011;389;48.710;9.392;2023-03-15T01:38:05;9.20;;;4.00;;
813;SDS011;389;48.710;9.392;2023-03-15T01:40:31;9.23;;;4.37;;
813;SDS011;389;48.710;9.392;2023-03-15T01:48:39;8.80;;;4.23;;
813;SDS011;389;48.710;9.392;2023-03-15T01:51:21;5.63;;;3.57;;
813;SDS011;389;48.710;9.392;2023-03-15T01:53:52;7.97;;;4.00;;
813;SDS011;389;48.710;9.392;2023-03-15T01:56:40;8.93;;;4.97;;
813;SDS011;389;48.710;9.392;2023-03-15T01:59:12;9.73;;;4.40;;
813;SDS011;389;48.710;9.392;2023-03-15T02:01:46;7.10;;;4.63;;
813;SDS011;389;48.710;9.392;2023-03-15T02:04:16;7.00;;;4.33;;
813;SDS011;389;48.710;9.392;2023-03-15T02:06:48;11.97;;;4.80;;
813;SDS011;389;48.710;9.392;2023-03-15T02:09:23;11.00;;;4.37;;
813;SDS011;389;48.710;9.392;2023-03-15T02:12:13;6.57;;;4.03;;
813;SDS011;389;48.710;9.392;2023-03-15T02:14:39;7.47;;;3.70;;
813;SDS011;389;48.710;9.392;2023-03-15T02:17:06;8.20;;;3.57;;
813;SDS011;389;48.710;9.392;2023-03-15T02:22:22;5.90;;;3.80;;
813;SDS011;389;48.710;9.392;2023-03-15T02:27:46;11.07;;;5.80;;
813;SDS011;389;48.710;9.392;2023-03-15T02:30:12;8.30;;;4.60;;
813;SDS011;389;48.710;9.392;2023-03-15T02:32:38;9.87;;;4.37;;
813;SDS011;389;48.710;9.392;2023-03-15T02:35:11;11.10;;;4.90;;
813;SDS011;389;48.710;9.392;2023-03-15T02:37:46;8.90;;;4.70;;
813;SDS011;389;48.710;9.392;2023-03-15T02:40:15;8.30;;;3.83;;
813;SDS011;389;48.710;9.392;2023-03-15T02:42:43;9.27;;;4.00;;
813;SDS011;389;48.710;9.392;2023-03-15T02:45:10;10.70;;;4.70;;
813;SDS011;389;48.710;9.392;2023-03-15T02:47:36;12.97;;;4.20;;
813;SDS011;389;48.710;9.392;2023-03-15T02:50:03;9.57;;;4.23;;
813;SDS011;389;48.710;9.392;2023-03-15T02:52:31;9.53;;;3.87;;
813;SDS011;389;48.710;9.392;2023-03-15T02:54:57;8.17;;;3.80;;
813;SDS011;389;48.710;9.392;2023-03-15T02:57:22;7.53;;;4.03;;
813;SDS011;389;48.710;9.392;2023-03-15T02:59:48;6.63;;;3.50;;
813;SDS011;389;48.710;9.392;2023-03-15T03:02:14;8.23;;;3.70;;
813;SDS011;389;48.710;9.392;2023-03-15T03:04:40;7.47;;;3.87;;
813;SDS011;389;48.710;9.392;2023-03-15T03:07:06;8.33;;;3.13;;
813;SDS011;389;48.710;9.392;2023-03-15T03:09:32;6.93;;;3.10;;
813;SDS011;389;48.710;9.392;2023-03-15T03:11:57;10.27;;;3.60;;
813;SDS011;389;48.710;9.392;2023-03-15T03:14:23;10.10;;;3.53;;
813;SDS011;389;48.710;9.392;2023-03-15T03:16:49;3.80;;;2.57;;
813;SDS011;389;48.710;9.392;2023-03-15T03:19:15;4.30;;;3.00;;
813;SDS011;389;48.710;9.392;2023-03-15T03:21:41;7.70;;;3.60;;
813;SDS011;389;48.710;9.392;2023-03-15T03:24:07;5.57;;;3.33;;
813;SDS011;389;48.710;9.392;2023-03-15T03:26:33;7.53;;;3.20;;
813;SDS011;389;48.710;9.392;2023-03-15T03:28:59;6.50;;;3.07;;
813;SDS011;389;48.710;9.392;2023-03-15T03:31:25;4.93;;;3.20;;
813;SDS011;389;48.710;9.392;2023-03-15T03:33:52;3.87;;;2.60;;
813;SDS011;389;48.710;9.392;2023-03-15T03:36:24;4.73;;;3.13;;
813;SDS011;389;48.710;9.392;2023-03-15T03:38:50;12.53;;;3.13;;
813;SDS011;389;48.710;9.392;2023-03-15T03:41:17;11.40;;;3.10;;
813;SDS011;389;48.710;9.392;2023-03-15T03:43:43;5.87;;;3.07;;
813;SDS011;389;48.710;9.392;2023-03-15T03:46:08;5.53;;;3.20;;
813;SDS011;389;48.710;9.392;2023-03-15T03:48:34;4.80;;;2.87;;
813;SDS011;389;48.710;9.392;2023-03-15T03:51:00;5.43;;;3.03;;
813;SDS011;389;48.710;9.392;2023-03-15T03:53:25;8.23;;;3.10;;
813;SDS011;389;48.710;9.392;2023-03-15T03:55:51;6.93;;;3.40;;
813;SDS011;389;48.710;9.392;2023-03-15T03:58:18;5.60;;;2.40;;
813;SDS011;389;48.710;9.392;2023-03-15T04:00:45;5.73;;;2.70;;
813;SDS011;389;48.710;9.392;2023-03-15T04:03:10;5.47;;;2.73;;
813;SDS011;389;48.710;9.392;2023-03-15T04:05:36;4.50;;;2.20;;
813;SDS011;389;48.710;9.392;2023-03-15T04:08:02;5.63;;;2.87;;
813;SDS011;389;48.710;9.392;2023-03-15T04:10:28;4.03;;;2.07;;
813;SDS011;389;48.710;9.392;2023-03-15T04:12:59;3.83;;;2.50;;
813;SDS011;389;48.710;9.392;2023-03-15T04:15:25;3.30;;;2.07;;
813;SDS011;389;48.710;9.392;2023-03-15T04:17:50;5.37;;;2.30;;
813;SDS011;389;48.710;9.392;2023-03-15T04:20:23;3.97;;;1.90;;
813;SDS011;389;48.710;9.392;2023-03-15T04:22:50;3.73;;;2.10;;
813;SDS011;389;48.710;9.392;2023-03-15T04:25:15;4.00;;;2.30;;
813;SDS011;389;48.710;9.392;2023-03-15T04:27:41;4.27;;;2.20;;
813;SDS011;389;48.710;9.392;2023-03-15T04:30:07;3.37;;;2.17;;
813;SDS011;389;48.710;9.392;2023-03-15T04:32:34;7.07;;;2.00;;
813;SDS011;389;48.710;9.392;2023-03-15T04:35:00;3.50;;;2.43;;
813;SDS011;389;48.710;9.392;2023-03-15T04:37:26;5.40;;;2.67;;
813;SDS011;389;48.710;9.392;2023-03-15T04:39:52;3.47;;;1.60;;
813;SDS011;389;48.710;9.392;2023-03-15T04:42:18;3.57;;;2.20;;
813;SDS011;389;48.710;9.392;2023-03-15T04:44:44;8.07;;;2.73;;
813;SDS011;389;48.710;9.392;2023-03-15T04:47:10;5.43;;;2.53;;
813;SDS011;389;48.710;9.392;2023-03-15T04:49:36;3.30;;;2.60;;
813;SDS011;389;48.710;9.392;2023-03-15T04:52:02;8.43;;;2.37;;
813;SDS011;389;48.710;9.392;2023-03-15T04:54:27;4.97;;;2.87;;
813;SDS011;389;48.710;9.392;2023-03-15T04:56:53;2.20;;;1.77;;
813;SDS011;389;48.710;9.392;2023-03-15T04:59:19;4.57;;;2.10;;
813;SDS011;389;48.710;9.392;2023-03-15T05:01:44;6.03;;;2.43;;
813;SDS011;389;48.710;9.392;2023-03-15T05:04:10;5.00;;;2.47;;
813;SDS011;389;48.710;9.392;2023-03-15T05:06:37;4.77;;;2.20;;
813;SDS011;389;48.710;9.392;2023-03-15T05:09:03;3.57;;;2.53;;
813;SDS011;389;48.710;9.392;2023-03-15T05:11:28;3.80;;;2.57;;
813;SDS011;389;48.710;9.392;2023-03-15T05:13:55;3.13;;;2.07;;
813;SDS011;389;48.710;9.392;2023-03-15T05:16:20;2.63;;;1.60;;
813;SDS011;389;48.710;9.392;2023-03-15T05:18:46;6.53;;;2.30;;
813;SDS011;389;48.710;9.392;2023-03-15T05:21:11;4.70;;;2.37;;
813;SDS011;389;48.710;9.392;2023-03-15T05:23:37;4.90;;;1.97;;
813;SDS011;389;48.710;9.392;2023-03-15T05:26:03;5.93;;;2.40;;
813;SDS011;389;48.710;9.392;2023-03-15T05:28:30;5.67;;;2.50;;
813;SDS011;389;48.710;9.392;2023-03-15T05:30:56;4.90;;;2.50;;
813;SDS011;389;48.710;9.392;2023-03-15T05:33:21;4.77;;;2.90;;
813;SDS011;389;48.710;9.392;2023-03-15T05:35:48;4.60;;;2.60;;
813;SDS011;389;48.710;9.392;2023-03-15T05:38:14;10.93;;;3.37;;
813;SDS011;389;48.710;9.392;2023-03-15T05:40:40;5.97;;;2.33;;
813;SDS011;389;48.710;9.392;2023-03-15T05:43:08;7.67;;;2.50;;
813;SDS011;389;48.710;9.392;2023-03-15T05:45:33;5.20;;;2.70;;
813;SDS011;389;48.710;9.392;2023-03-15T05:47:59;5.30;;;2.93;;
813;SDS011;389;48.710;9.392;2023-03-15T05:50:25;4.30;;;2.60;;
813;SDS011;389;48.710;9.392;2023-03-15T05:52:52;15.43;;;3.73;;
813;SDS011;389;48.710;9.392;2023-03-15T05:55:18;5.37;;;2.87;;
813;SDS011;389;48.710;9.392;2023-03-15T05:57:44;6.07;;;3.57;;
813;SDS011;389;48.710;9.392;2023-03-15T06:00:10;4.50;;;3.07;;
813;SDS011;389;48.710;9.392;2023-03-15T06:02:38;9.30;;;5.20;;
813;SDS011;389;48.710;9.392;2023-03-15T06:20:49;10.37;;;3.43;;
813;SDS011;389;48.710;9.392;2023-03-15T06:23:14;8.37;;;3.10;;
813;SDS011;389;48.710;9.392;2023-03-15T06:25:40;10.70;;;3.90;;
813;SDS011;389;48.710;9.392;2023-03-15T06:28:06;8.80;;;3.83;;
813;SDS011;389;48.710;9.392;2023-03-15T06:30:32;10.17;;;3.70;;
813;SDS011;389;48.710;9.392;2023-03-15T06:38:07;7.27;;;3.93;;
813;SDS011;389;48.710;9.392;2023-03-15T06:40:32;9.00;;;4.20;;
813;SDS011;389;48.710;9.392;2023-03-15T06:42:58;10.40;;;3.10;;
813;SDS011;389;48.710;9.392;2023-03-15T06:45:28;11.40;;;4.00;;
813;SDS011;389;48.710;9.392;2023-03-15T06:47:55;13.47;;;4.60;;
813;SDS011;389;48.710;9.392;2023-03-15T06:50:21;9.70;;;4.30;;
813;SDS011;389;48.710;9.392;2023-03-15T06:52:46;8.00;;;5.10;;
813;SDS011;389;48.710;9.392;2023-03-15T06:55:12;9.07;;;4.53;;
813;SDS011;389;48.710;9.392;2023-03-15T06:57:42;9.87;;;5.30;;
813;SDS011;389;48.710;9.392;2023-03-15T07:00:08;11.07;;;5.00;;
813;SDS011;389;48.710;9.392;2023-03-15T07:02:35;7.83;;;3.80;;
813;SDS011;389;48.710;9.392;2023-03-15T07:05:02;9.67;;;4.73;;
813;SDS011;389;48.710;9.392;2023-03-15T07:07:28;8.50;;;4.90;;
813;SDS011;389;48.710;9.392;2023-03-15T07:09:54;9.33;;;5.47;;
813;SDS011;389;48.710;9.392;2023-03-15T07:12:19;10.67;;;5.17;;
813;SDS011;389;48.710;9.392;2023-03-15T07:14:45;7.73;;;4.80;;
813;SDS011;389;48.710;9.392;2023-03-15T07:17:11;12.00;;;5.87;;
813;SDS011;389;48.710;9.392;2023-03-15T07:19:36;11.17;;;5.30;;
813;SDS011;389;48.710;9.392;2023-03-15T07:22:02;10.13;;;4.67;;
813;SDS011;389;48.710;9.392;2023-03-15T07:24:28;9.37;;;5.00;;
813;SDS011;389;48.710;9.392;2023-03-15T07:26:54;13.73;;;5.23;;
813;SDS011;389;48.710;9.392;2023-03-15T07:29:21;9.47;;;4.80;;
813;SDS011;389;48.710;9.392;2023-03-15T07:31:47;10.00;;;4.70;;
813;SDS011;389;48.710;9.392;2023-03-15T07:34:13;7.73;;;4.77;;
813;SDS011;389;48.710;9.392;2023-03-15T07:36:39;12.63;;;5.27;;
813;SDS011;389;48.710;9.392;2023-03-15T07:39:05;9.10;;;5.40;;
813;SDS011;389;48.710;9.392;2023-03-15T07:41:30;11.47;;;4.57;;
813;SDS011;389;48.710;9.392;2023-03-15T07:43:56;13.27;;;5.30;;
813;SDS011;389;48.710;9.392;2023-03-15T07:46:22;9.07;;;5.20;;
813;SDS011;389;48.710;9.392;2023-03-15T07:48:47;8.37;;;4.80;;
813;SDS011;389;48.710;9.392;2023-03-15T07:51:13;7.33;;;4.30;;
813;SDS011;389;48.710;9.392;2023-03-15T07:53:38;8.93;;;4.97;;
813;SDS011;389;48.710;9.392;2023-03-15T07:56:04;8.07;;;4.70;;
813;SDS011;389;48.710;9.392;2023-03-15T07:58:30;6.00;;;4.30;;
813;SDS011;389;48.710;9.392;2023-03-15T08:00:56;8.23;;;4.60;;
813;SDS011;389;48.710;9.392;2023-03-15T08:03:25;11.73;;;5.17;;
813;SDS011;389;48.710;9.392;2023-03-15T08:05:51;10.07;;;4.33;;
813;SDS011;389;48.710;9.392;2023-03-15T08:08:17;6.80;;;3.40;;
813;SDS011;389;48.710;9.392;2023-03-15T08:10:43;9.70;;;4.30;;
813;SDS011;389;48.710;9.392;2023-03-15T08:13:09;5.17;;;3.50;;
813;SDS011;389;48.710;9.392;2023-03-15T08:15:35;6.87;;;3.23;;
813;SDS011;389;48.710;9.392;2023-03-15T08:18:01;4.60;;;3.30;;
813;SDS011;389;48.710;9.392;2023-03-15T08:20:27;7.83;;;3.17;;
813;SDS011;389;48.710;9.392;2023-03-15T08:22:52;4.83;;;2.60;;
813;SDS011;389;48.710;9.392;2023-03-15T08:25:19;3.90;;;2.50;;
813;SDS011;389;48.710;9.392;2023-03-15T08:27:47;3.37;;;1.93;;
813;SDS011;389;48.710;9.392;2023-03-15T08:30:14;6.70;;;2.87;;
813;SDS011;389;48.710;9.392;2023-03-15T08:32:42;3.30;;;2.10;;
813;SDS011;389;48.710;9.392;2023-03-15T08:35:09;4.90;;;1.90;;
813;SDS011;389;48.710;9.392;2023-03-15T08:37:36;4.33;;;2.33;;
813;SDS011;389;48.710;9.392;2023-03-15T08:40:03;3.10;;;1.90;;
813;SDS011;389;48.710;9.392;2023-03-15T08:42:33;3.30;;;2.10;;
813;SDS011;389;48.710;9.392;2023-03-15T08:45:00;4.47;;;1.80;;
813;SDS011;389;48.710;9.392;2023-03-15T08:47:27;7.67;;;1.90;;
813;SDS011;389;48.710;9.392;2023-03-15T08:49:52;4.73;;;1.77;;
813;SDS011;389;48.710;9.392;2023-03-15T08:52:19;3.60;;;1.87;;
813;SDS011;389;48.710;9.392;2023-03-15T08:54:45;5.40;;;2.17;;
813;SDS011;389;48.710;9.392;2023-03-15T08:57:11;3.97;;;1.67;;
813;SDS011;389;48.710;9.392;2023-03-15T08:59:37;4.63;;;1.80;;
813;SDS011;389;48.710;9.392;2023-03-15T09:02:04;2.37;;;1.67;;
813;SDS011;389;48.710;9.392;2023-03-15T09:04:30;6.03;;;2.03;;
813;SDS011;389;48.710;9.392;2023-03-15T09:06:56;3.60;;;1.70;;
813;SDS011;389;48.710;9.392;2023-03-15T09:09:22;2.43;;;1.87;;
813;SDS011;389;48.710;9.392;2023-03-15T09:11:48;3.40;;;1.80;;
813;SDS011;389;48.710;9.392;2023-03-15T09:14:14;8.83;;;1.70;;
813;SDS011;389;48.710;9.392;2023-03-15T09:16:39;4.80;;;1.40;;
813;SDS011;389;48.710;9.392;2023-03-15T09:19:05;5.80;;;1.80;;
813;SDS011;389;48.710;9.392;2023-03-15T09:21:30;1.70;;;1.33;;
813;SDS011;389;48.710;9.392;2023-03-15T09:23:56;1.50;;;1.20;;
813;SDS011;389;48.710;9.392;2023-03-15T09:26:21;2.10;;;1.70;;
813;SDS011;389;48.710;9.392;2023-03-15T09:28:47;1.93;;;1.73;;
813;SDS011;389;48.710;9.392;2023-03-15T09:31:13;4.80;;;1.67;;
813;SDS011;389;48.710;9.392;2023-03-15T09:33:38;2.43;;;1.53;;
813;SDS011;389;48.710;9.392;2023-03-15T09:36:04;2.50;;;1.63;;
813;SDS011;389;48.710;9.392;2023-03-15T09:38:30;3.23;;;2.00;;
813;SDS011;389;48.710;9.392;2023-03-15T09:40:56;2.73;;;1.30;;
813;SDS011;389;48.710;9.392;2023-03-15T09:46:24;2.67;;;1.87;;
813;SDS011;389;48.710;9.392;2023-03-15T09:49:11;3.17;;;1.80;;
813;SDS011;389;48.710;9.392;2023-03-15T09:52:11;3.57;;;2.20;;
813;SDS011;389;48.710;9.392;2023-03-15T09:57:56;2.97;;;1.70;;
813;SDS011;389;48.710;9.392;2023-03-15T10:00:26;11.33;;;7.93;;
813;SDS011;389;48.710;9.392;2023-03-15T10:03:01;7.50;;;4.47;;
813;SDS011;389;48.710;9.392;2023-03-15T10:05:40;6.03;;;3.27;;
813;SDS011;389;48.710;9.392;2023-03-15T10:08:15;2.60;;;1.77;;
813;SDS011;389;48.710;9.392;2023-03-15T10:10:43;12.50;;;7.30;;
813;SDS011;389;48.710;9.392;2023-03-15T10:16:05;1.27;;;1.17;;
813;SDS011;389;48.710;9.392;2023-03-15T10:19:01;4.80;;;2.77;;
813;SDS011;389;48.710;9.392;2023-03-15T10:21:43;2.20;;;1.70;;
813;SDS011;389;48.710;9.392;2023-03-15T10:24:32;4.20;;;2.10;;
813;SDS011;389;48.710;9.392;2023-03-15T10:27:13;9.90;;;5.93;;
813;SDS011;389;48.710;9.392;2023-03-15T10:29:44;4.43;;;3.33;;
813;SDS011;389;48.710;9.392;2023-03-15T10:32:13;3.80;;;2.90;;
813;SDS011;389;48.710;9.392;2023-03-15T10:34:43;1.67;;;1.43;;
813;SDS011;389;48.710;9.392;2023-03-15T10:37:14;4.27;;;3.37;;
813;SDS011;389;48.710;9.392;2023-03-15T10:39:39;4.97;;;3.07;;
813;SDS011;389;48.710;9.392;2023-03-15T10:42:21;3.27;;;1.60;;
813;SDS011;389;48.710;9.392;2023-03-15T10:44:51;1.50;;;1.33;;
813;SDS011;389;48.710;9.392;2023-03-15T10:47:18;13.80;;;10.33;;
813;SDS011;389;48.710;9.392;2023-03-15T10:49:45;5.50;;;2.37;;
813;SDS011;389;48.710;9.392;2023-03-15T10:52:28;2.43;;;2.23;;
813;SDS011;389;48.710;9.392;2023-03-15T10:55:00;2.33;;;1.40;;
813;SDS011;389;48.710;9.392;2023-03-15T10:57:36;3.50;;;2.33;;
813;SDS011;389;48.710;9.392;2023-03-15T11:02:48;2.43;;;1.60;;
813;SDS011;389;48.710;9.392;2023-03-15T11:05:16;3.20;;;2.10;;
813;SDS011;389;48.710;9.392;2023-03-15T11:07:53;2.17;;;1.40;;
813;SDS011;389;48.710;9.392;2023-03-15T11:10:21;4.10;;;2.17;;
813;SDS011;389;48.710;9.392;2023-03-15T11:13:20;2.43;;;1.53;;
813;SDS011;389;48.710;9.392;2023-03-15T11:18:23;1.37;;;1.27;;
813;SDS011;389;48.710;9.392;2023-03-15T11:20:51;1.47;;;1.10;;
813;SDS011;389;48.710;9.392;2023-03-15T11:23:21;4.17;;;1.40;;
813;SDS011;389;48.710;9.392;2023-03-15T11:25:50;1.63;;;1.10;;
813;SDS011;389;48.710;9.392;2023-03-15T11:28:17;1.70;;;1.53;;
813;SDS011;389;48.710;9.392;2023-03-15T11:30:46;1.60;;;1.37;;
813;SDS011;389;48.710;9.392;2023-03-15T11:33:20;4.47;;;1.23;;
813;SDS011;389;48.710;9.392;2023-03-15T11:36:05;2.73;;;1.40;;
813;SDS011;389;48.710;9.392;2023-03-15T11:38:40;1.57;;;1.47;;
813;SDS011;389;48.710;9.392;2023-03-15T11:41:10;3.17;;;1.30;;
813;SDS011;389;48.710;9.392;2023-03-15T11:44:00;3.30;;;1.23;;
813;SDS011;389;48.710;9.392;2023-03-15T11:52:21;0.97;;;0.93;;
813;SDS011;389;48.710;9.392;2023-03-15T11:54:53;1.63;;;1.40;;
813;SDS011;389;48.710;9.392;2023-03-15T11:59:54;3.03;;;2.83;;
813;SDS011;389;48.710;9.392;2023-03-15T12:02:47;0.80;;;0.77;;
813;SDS011;389;48.710;9.392;2023-03-15T12:11:12;1.97;;;1.10;;
813;SDS011;389;48.710;9.392;2023-03-15T12:16:21;1.50;;;1.20;;
813;SDS011;389;48.710;9.392;2023-03-15T12:18:49;2.23;;;1.37;;
813;SDS011;389;48.710;9.392;2023-03-15T12:21:37;2.60;;;1.30;;
813;SDS011;389;48.710;9.392;2023-03-15T12:24:03;2.00;;;1.00;;
813;SDS011;389;48.710;9.392;2023-03-15T12:26:41;2.00;;;1.33;;
813;SDS011;389;48.710;9.392;2023-03-15T12:29:22;2.20;;;1.07;;
813;SDS011;389;48.710;9.392;2023-03-15T12:31:55;7.03;;;1.10;;
813;SDS011;389;48.710;9.392;2023-03-15T12:37:03;3.17;;;1.10;;
813;SDS011;389;48.710;9.392;2023-03-15T12:55:56;2.60;;;1.67;;
813;SDS011;389;48.710;9.392;2023-03-15T12:58:35;1.60;;;0.90;;
813;SDS011;389;48.710;9.392;2023-03-15T13:01:03;1.47;;;0.90;;
813;SDS011;389;48.710;9.392;2023-03-15T13:03:32;3.23;;;1.33;;
813;SDS011;389;48.710;9.392;2023-03-15T13:11:44;1.70;;;0.90;;
813;SDS011;389;48.710;9.392;2023-03-15T13:14:26;1.03;;;0.93;;
813;SDS011;389;48.710;9.392;2023-03-15T13:19:55;1.37;;;1.27;;
813;SDS011;389;48.710;9.392;2023-03-15T13:22:49;2.10;;;1.63;;
813;SDS011;389;48.710;9.392;2023-03-15T13:28:17;3.30;;;2.00;;
813;SDS011;389;48.710;9.392;2023-03-15T13:31:01;4.73;;;2.30;;
813;SDS011;389;48.710;9.392;2023-03-15T13:33:36;2.27;;;1.80;;
813;SDS011;389;48.710;9.392;2023-03-15T13:36:03;4.93;;;2.40;;
813;SDS011;389;48.710;9.392;2023-03-15T13:38:51;4.27;;;2.10;;
813;SDS011;389;48.710;9.392;2023-03-15T13:41:20;1.57;;;1.00;;
813;SDS011;389;48.710;9.392;2023-03-15T13:43:54;3.80;;;2.17;;
813;SDS011;389;48.710;9.392;2023-03-15T13:46:22;3.90;;;1.93;;
813;SDS011;389;48.710;9.392;2023-03-15T13:48:51;4.47;;;2.00;;
813;SDS011;389;48.710;9.392;2023-03-15T13:54:07;3.70;;;1.70;;
813;SDS011;389;48.710;9.392;2023-03-15T13:56:36;3.63;;;1.90;;
813;SDS011;389;48.710;9.392;2023-03-15T13:59:22;6.40;;;2.00;;
813;SDS011;389;48.710;9.392;2023-03-15T14:01:51;1.97;;;1.60;;
813;SDS011;389;48.710;9.392;2023-03-15T14:04:18;2.60;;;1.80;;
813;SDS011;389;48.710;9.392;2023-03-15T14:06:46;3.90;;;2.13;;
813;SDS011;389;48.710;9.392;2023-03-15T14:09:19;4.00;;;2.33;;
813;SDS011;389;48.710;9.392;2023-03-15T14:12:00;1.80;;;1.50;;
813;SDS011;389;48.710;9.392;2023-03-15T14:14:28;4.03;;;1.50;;
813;SDS011;389;48.710;9.392;2023-03-15T14:16:56;3.97;;;2.10;;
813;SDS011;389;48.710;9.392;2023-03-15T14:19:28;4.10;;;2.47;;
813;SDS011;389;48.710;9.392;2023-03-15T14:21:57;1.63;;;1.40;;
813;SDS011;389;48.710;9.392;2023-03-15T14:27:00;1.60;;;1.30;;
813;SDS011;389;48.710;9.392;2023-03-15T14:29:30;2.10;;;1.37;;
813;SDS011;389;48.710;9.392;2023-03-15T14:32:03;3.90;;;1.77;;
813;SDS011;389;48.710;9.392;2023-03-15T14:34:50;2.07;;;1.70;;
813;SDS011;389;48.710;9.392;2023-03-15T14:37:40;5.43;;;2.07;;
813;SDS011;389;48.710;9.392;2023-03-15T14:40:11;2.80;;;1.90;;
813;SDS011;389;48.710;9.392;2023-03-15T14:42:41;2.53;;;1.70;;
813;SDS011;389;48.710;9.392;2023-03-15T14:45:09;1.60;;;1.40;;
813;SDS011;389;48.710;9.392;2023-03-15T14:47:36;1.70;;;1.43;;
813;SDS011;389;48.710;9.392;2023-03-15T14:50:14;4.43;;;2.90;;
813;SDS011;389;48.710;9.392;2023-03-15T14:52:42;5.40;;;3.20;;
813;SDS011;389;48.710;9.392;2023-03-15T14:55:12;9.60;;;4.57;;
813;SDS011;389;48.710;9.392;2023-03-15T14:57:42;7.03;;;3.23;;
813;SDS011;389;48.710;9.392;2023-03-15T15:00:11;8.93;;;5.00;;
813;SDS011;389;48.710;9.392;2023-03-15T15:02:40;2.97;;;1.47;;
813;SDS011;389;48.710;9.392;2023-03-15T15:05:28;2.33;;;1.40;;
813;SDS011;389;48.710;9.392;2023-03-15T15:08:09;8.07;;;4.03;;
813;SDS011;389;48.710;9.392;2023-03-15T15:10:39;3.93;;;2.20;;
813;SDS011;389;48.710;9.392;2023-03-15T15:13:06;2.17;;;1.60;;
813;SDS011;389;48.710;9.392;2023-03-15T15:15:35;2.00;;;1.67;;
813;SDS011;389;48.710;9.392;2023-03-15T15:18:01;3.07;;;1.50;;
813;SDS011;389;48.710;9.392;2023-03-15T15:20:26;3.40;;;2.20;;
813;SDS011;389;48.710;9.392;2023-03-15T15:22:52;6.00;;;3.43;;
813;SDS011;389;48.710;9.392;2023-03-15T15:25:18;4.73;;;2.07;;
813;SDS011;389;48.710;9.392;2023-03-15T15:27:46;1.73;;;1.60;;
813;SDS011;389;48.710;9.392;2023-03-15T15:30:14;2.00;;;1.67;;
813;SDS011;389;48.710;9.392;2023-03-15T15:32:44;3.80;;;1.77;;
813;SDS011;389;48.710;9.392;2023-03-15T15:35:11;1.50;;;1.27;;
813;SDS011;389;48.710;9.392;2023-03-15T15:37:38;2.17;;;1.73;;
813;SDS011;389;48.710;9.392;2023-03-15T15:40:06;1.93;;;1.30;;
813;SDS011;389;48.710;9.392;2023-03-15T15:42:36;1.03;;;1.03;;
813;SDS011;389;48.710;9.392;2023-03-15T15:45:01;2.13;;;1.30;;
813;SDS011;389;48.710;9.392;2023-03-15T15:47:27;3.80;;;2.30;;
813;SDS011;389;48.710;9.392;2023-03-15T15:49:52;7.80;;;2.60;;
813;SDS011;389;48.710;9.392;2023-03-15T15:52:18;3.47;;;2.73;;
813;SDS011;389;48.710;9.392;2023-03-15T15:54:44;3.57;;;2.90;;
813;SDS011;389;48.710;9.392;2023-03-15T15:57:10;4.23;;;2.83;;
813;SDS011;389;48.710;9.392;2023-03-15T15:59:36;2.50;;;2.30;;
813;SDS011;389;48.710;9.392;2023-03-15T16:02:02;3.17;;;2.37;;
813;SDS011;389;48.710;9.392;2023-03-15T16:04:36;7.50;;;4.43;;
813;SDS011;389;48.710;9.392;2023-03-15T16:07:02;6.17;;;3.63;;
813;SDS011;389;48.710;9.392;2023-03-15T16:09:28;5.37;;;3.73;;
813;SDS011;389;48.710;9.392;2023-03-15T16:11:56;6.37;;;4.27;;
813;SDS011;389;48.710;9.392;2023-03-15T16:14:22;8.27;;;4.00;;
813;SDS011;389;48.710;9.392;2023-03-15T16:16:47;3.53;;;2.70;;
813;SDS011;389;48.710;9.392;2023-03-15T16:19:14;5.80;;;4.23;;
813;SDS011;389;48.710;9.392;2023-03-15T16:24:25;11.60;;;6.50;;
813;SDS011;389;48.710;9.392;2023-03-15T16:26:55;4.30;;;3.90;;
813;SDS011;389;48.710;9.392;2023-03-15T16:29:36;10.33;;;7.17;;
813;SDS011;389;48.710;9.392;2023-03-15T16:32:17;10.43;;;7.53;;
813;SDS011;389;48.710;9.392;2023-03-15T16:34:44;12.83;;;7.43;;
813;SDS011;389;48.710;9.392;2023-03-15T16:37:21;4.13;;;3.20;;
813;SDS011;389;48.710;9.392;2023-03-15T16:39:49;6.80;;;4.13;;
813;SDS011;389;48.710;9.392;2023-03-15T16:42:17;28.07;;;15.77;;
813;SDS011;389;48.710;9.392;2023-03-15T16:44:43;9.70;;;6.50;;
813;SDS011;389;48.710;9.392;2023-03-15T16:47:09;12.87;;;8.70;;
813;SDS011;389;48.710;9.392;2023-03-15T16:49:35;6.50;;;4.83;;
813;SDS011;389;48.710;9.392;2023-03-15T16:52:01;5.53;;;4.33;;
813;SDS011;389;48.710;9.392;2023-03-15T16:54:28;6.43;;;4.03;;
813;SDS011;389;48.710;9.392;2023-03-15T16:56:55;6.07;;;3.70;;
813;SDS011;389;48.710;9.392;2023-03-15T16:59:21;8.00;;;4.10;;
813;SDS011;389;48.710;9.392;2023-03-15T17:01:47;8.10;;;4.10;;
813;SDS011;389;48.710;9.392;2023-03-15T17:04:15;4.23;;;3.50;;
813;SDS011;389;48.710;9.392;2023-03-15T17:06:41;5.20;;;4.10;;
813;SDS011;389;48.710;9.392;2023-03-15T17:09:13;11.17;;;6.83;;
813;SDS011;389;48.710;9.392;2023-03-15T17:11:42;6.57;;;4.37;;
813;SDS011;389;48.710;9.392;2023-03-15T17:14:14;8.43;;;6.23;;
813;SDS011;389;48.710;9.392;2023-03-15T17:16:43;5.20;;;4.00;;
813;SDS011;389;48.710;9.392;2023-03-15T17:19:12;8.00;;;3.93;;
813;SDS011;389;48.710;9.392;2023-03-15T17:21:39;8.13;;;3.50;;
813;SDS011;389;48.710;9.392;2023-03-15T17:24:06;5.47;;;4.10;;
813;SDS011;389;48.710;9.392;2023-03-15T17:26:33;4.40;;;3.17;;
813;SDS011;389;48.710;9.392;2023-03-15T17:28:59;6.10;;;3.83;;
813;SDS011;389;48.710;9.392;2023-03-15T17:31:27;6.50;;;4.40;;
813;SDS011;389;48.710;9.392;2023-03-15T17:33:54;4.43;;;3.83;;
813;SDS011;389;48.710;9.392;2023-03-15T17:36:20;4.87;;;3.87;;
813;SDS011;389;48.710;9.392;2023-03-15T17:38:48;8.80;;;5.10;;